sensor_id;sensor_type;location;lat;lon;timestamp;P1;durP1;ratioP1;P2;durP2;ratioP2
75542;SDS011;64129;53.508;10.476;2023-06-22T00:02:19;3.72;;;3.00;;
75542;SDS011;64129;53.508;10.476;2023-06-22T00:04:46;4.28;;;2.70;;
75542;SDS011;64129;53.508;10.476;2023-06-22T00:07:12;3.67;;;2.88;;
75542;SDS011;64129;53.508;10.476;2023-06-22T00:09:39;3.35;;;2.63;;
75542;SDS011;64129;53.508;10.476;2023-06-22T00:12:05;4.70;;;2.70;;
75542;SDS011;64129;53.508;10.476;2023-06-22T00:14:32;7.30;;;2.88;;
75542;SDS011;64129;53.508;10.476;2023-06-22T00:16:59;4.35;;;3.25;;
75542;SDS011;64129;53.508;10.476;2023-06-22T00:19:25;3.75;;;2.83;;
75542;SDS011;64129;53.508;10.476;2023-06-22T00:21:52;3.25;;;2.50;;
75542;SDS011;64129;53.508;10.476;2023-06-22T00:24:20;6.22;;;3.05;;
75542;SDS011;64129;53.508;10.476;2023-06-22T00:26:47;3.60;;;2.70;;
75542;SDS011;64129;53.508;10.476;2023-06-22T00:29:15;2.65;;;2.45;;
75542;SDS011;64129;53.508;10.476;2023-06-22T00:31:42;4.05;;;2.97;;
75542;SDS011;64129;53.508;10.476;2023-06-22T00:34:08;3.38;;;2.67;;
75542;SDS011;64129;53.508;10.476;2023-06-22T00:36:35;3.83;;;3.00;;
75542;SDS011;64129;53.508;10.476;2023-06-22T00:39:02;4.25;;;2.80;;
75542;SDS011;64129;53.508;10.476;2023-06-22T00:41:29;3.88;;;2.53;;
75542;SDS011;64129;53.508;10.476;2023-06-22T00:43:56;3.63;;;2.53;;
75542;SDS011;64129;53.508;10.476;2023-06-22T00:46:23;3.55;;;2.42;;
75542;SDS011;64129;53.508;10.476;2023-06-22T00:51:19;5.28;;;3.20;;
75542;SDS011;64129;53.508;10.476;2023-06-22T00:53:51;4.75;;;3.20;;
75542;SDS011;64129;53.508;10.476;2023-06-22T00:56:19;3.50;;;2.78;;
75542;SDS011;64129;53.508;10.476;2023-06-22T00:58:51;3.72;;;3.05;;
75542;SDS011;64129;53.508;10.476;2023-06-22T01:01:19;4.03;;;2.90;;
75542;SDS011;64129;53.508;10.476;2023-06-22T01:03:49;3.95;;;2.72;;
75542;SDS011;64129;53.508;10.476;2023-06-22T01:06:19;2.92;;;2.65;;
75542;SDS011;64129;53.508;10.476;2023-06-22T01:09:06;2.85;;;2.60;;
75542;SDS011;64129;53.508;10.476;2023-06-22T01:11:40;3.70;;;2.67;;
75542;SDS011;64129;53.508;10.476;2023-06-22T01:14:13;4.47;;;3.38;;
75542;SDS011;64129;53.508;10.476;2023-06-22T01:16:45;4.07;;;2.90;;
75542;SDS011;64129;53.508;10.476;2023-06-22T01:22:24;4.68;;;2.75;;
75542;SDS011;64129;53.508;10.476;2023-06-22T01:24:59;3.22;;;2.83;;
75542;SDS011;64129;53.508;10.476;2023-06-22T01:30:29;3.95;;;3.13;;
75542;SDS011;64129;53.508;10.476;2023-06-22T01:32:58;5.57;;;2.83;;
75542;SDS011;64129;53.508;10.476;2023-06-22T01:35:26;4.18;;;3.10;;
75542;SDS011;64129;53.508;10.476;2023-06-22T01:37:54;4.15;;;2.70;;
75542;SDS011;64129;53.508;10.476;2023-06-22T01:40:22;3.28;;;2.88;;
75542;SDS011;64129;53.508;10.476;2023-06-22T01:42:50;3.38;;;3.08;;
75542;SDS011;64129;53.508;10.476;2023-06-22T01:45:17;4.10;;;2.95;;
75542;SDS011;64129;53.508;10.476;2023-06-22T01:47:45;6.47;;;3.33;;
75542;SDS011;64129;53.508;10.476;2023-06-22T01:50:12;3.60;;;2.85;;
75542;SDS011;64129;53.508;10.476;2023-06-22T01:52:38;3.90;;;2.90;;
75542;SDS011;64129;53.508;10.476;2023-06-22T01:55:05;3.78;;;2.92;;
75542;SDS011;64129;53.508;10.476;2023-06-22T01:57:34;4.75;;;3.10;;
75542;SDS011;64129;53.508;10.476;2023-06-22T02:00:03;5.05;;;3.00;;
75542;SDS011;64129;53.508;10.476;2023-06-22T02:05:26;4.40;;;2.97;;
75542;SDS011;64129;53.508;10.476;2023-06-22T02:08:09;3.92;;;3.53;;
75542;SDS011;64129;53.508;10.476;2023-06-22T02:10:42;3.53;;;3.17;;
75542;SDS011;64129;53.508;10.476;2023-06-22T02:13:11;4.35;;;3.03;;
75542;SDS011;64129;53.508;10.476;2023-06-22T02:15:39;4.85;;;3.25;;
75542;SDS011;64129;53.508;10.476;2023-06-22T02:18:05;6.40;;;3.85;;
75542;SDS011;64129;53.508;10.476;2023-06-22T02:20:32;4.35;;;3.22;;
75542;SDS011;64129;53.508;10.476;2023-06-22T02:22:59;3.10;;;2.75;;
75542;SDS011;64129;53.508;10.476;2023-06-22T02:25:25;4.53;;;3.88;;
75542;SDS011;64129;53.508;10.476;2023-06-22T02:27:52;3.47;;;3.17;;
75542;SDS011;64129;53.508;10.476;2023-06-22T02:30:18;3.40;;;3.05;;
75542;SDS011;64129;53.508;10.476;2023-06-22T02:32:45;3.53;;;3.22;;
75542;SDS011;64129;53.508;10.476;2023-06-22T02:35:14;3.40;;;3.10;;
75542;SDS011;64129;53.508;10.476;2023-06-22T02:37:41;4.43;;;3.00;;
75542;SDS011;64129;53.508;10.476;2023-06-22T02:40:08;4.32;;;3.35;;
75542;SDS011;64129;53.508;10.476;2023-06-22T02:42:35;3.60;;;2.70;;
75542;SDS011;64129;53.508;10.476;2023-06-22T02:45:03;3.25;;;2.95;;
75542;SDS011;64129;53.508;10.476;2023-06-22T02:47:29;4.10;;;3.50;;
75542;SDS011;64129;53.508;10.476;2023-06-22T02:49:56;3.80;;;3.20;;
75542;SDS011;64129;53.508;10.476;2023-06-22T02:52:24;4.18;;;3.10;;
75542;SDS011;64129;53.508;10.476;2023-06-22T02:54:50;5.72;;;3.30;;
75542;SDS011;64129;53.508;10.476;2023-06-22T02:57:17;4.28;;;3.60;;
75542;SDS011;64129;53.508;10.476;2023-06-22T02:59:44;4.90;;;3.25;;
75542;SDS011;64129;53.508;10.476;2023-06-22T03:02:11;5.80;;;3.85;;
75542;SDS011;64129;53.508;10.476;2023-06-22T03:04:39;4.10;;;3.70;;
75542;SDS011;64129;53.508;10.476;2023-06-22T03:07:05;4.72;;;3.58;;
75542;SDS011;64129;53.508;10.476;2023-06-22T03:09:32;4.10;;;3.15;;
75542;SDS011;64129;53.508;10.476;2023-06-22T03:11:59;4.05;;;3.55;;
75542;SDS011;64129;53.508;10.476;2023-06-22T03:17:00;6.05;;;4.15;;
75542;SDS011;64129;53.508;10.476;2023-06-22T03:19:29;4.57;;;4.07;;
75542;SDS011;64129;53.508;10.476;2023-06-22T03:21:59;5.68;;;4.88;;
75542;SDS011;64129;53.508;10.476;2023-06-22T03:24:26;6.32;;;4.22;;
75542;SDS011;64129;53.508;10.476;2023-06-22T03:26:55;5.10;;;4.60;;
75542;SDS011;64129;53.508;10.476;2023-06-22T03:29:23;5.07;;;4.47;;
75542;SDS011;64129;53.508;10.476;2023-06-22T03:31:50;4.85;;;4.22;;
75542;SDS011;64129;53.508;10.476;2023-06-22T03:34:17;4.82;;;4.32;;
75542;SDS011;64129;53.508;10.476;2023-06-22T03:36:43;6.00;;;4.15;;
75542;SDS011;64129;53.508;10.476;2023-06-22T03:41:39;5.43;;;3.88;;
75542;SDS011;64129;53.508;10.476;2023-06-22T03:44:06;5.90;;;4.43;;
75542;SDS011;64129;53.508;10.476;2023-06-22T03:46:32;6.18;;;3.92;;
75542;SDS011;64129;53.508;10.476;2023-06-22T03:48:59;4.10;;;3.70;;
75542;SDS011;64129;53.508;10.476;2023-06-22T03:51:26;5.45;;;4.13;;
75542;SDS011;64129;53.508;10.476;2023-06-22T03:53:53;5.07;;;4.25;;
75542;SDS011;64129;53.508;10.476;2023-06-22T03:56:19;5.85;;;4.60;;
75542;SDS011;64129;53.508;10.476;2023-06-22T03:58:47;6.00;;;4.82;;
75542;SDS011;64129;53.508;10.476;2023-06-22T04:01:13;5.50;;;4.85;;
75542;SDS011;64129;53.508;10.476;2023-06-22T04:03:40;4.78;;;4.05;;
75542;SDS011;64129;53.508;10.476;2023-06-22T04:06:07;6.30;;;4.50;;
75542;SDS011;64129;53.508;10.476;2023-06-22T04:08:34;5.53;;;4.55;;
75542;SDS011;64129;53.508;10.476;2023-06-22T04:11:00;6.45;;;4.10;;
75542;SDS011;64129;53.508;10.476;2023-06-22T04:13:27;5.60;;;4.00;;
75542;SDS011;64129;53.508;10.476;2023-06-22T04:15:53;4.40;;;3.53;;
75542;SDS011;64129;53.508;10.476;2023-06-22T04:18:20;6.45;;;4.43;;
75542;SDS011;64129;53.508;10.476;2023-06-22T04:20:47;6.80;;;4.57;;
75542;SDS011;64129;53.508;10.476;2023-06-22T04:23:13;6.85;;;4.25;;
75542;SDS011;64129;53.508;10.476;2023-06-22T04:25:40;5.60;;;4.43;;
75542;SDS011;64129;53.508;10.476;2023-06-22T04:28:06;6.82;;;3.85;;
75542;SDS011;64129;53.508;10.476;2023-06-22T04:30:38;4.22;;;3.83;;
75542;SDS011;64129;53.508;10.476;2023-06-22T04:33:15;5.75;;;4.10;;
75542;SDS011;64129;53.508;10.476;2023-06-22T04:35:44;5.15;;;3.92;;
75542;SDS011;64129;53.508;10.476;2023-06-22T04:38:11;5.05;;;3.80;;
75542;SDS011;64129;53.508;10.476;2023-06-22T04:40:39;6.00;;;4.80;;
75542;SDS011;64129;53.508;10.476;2023-06-22T04:43:06;8.07;;;5.20;;
75542;SDS011;64129;53.508;10.476;2023-06-22T04:45:33;5.97;;;4.10;;
75542;SDS011;64129;53.508;10.476;2023-06-22T04:47:59;6.35;;;4.60;;
75542;SDS011;64129;53.508;10.476;2023-06-22T04:50:26;5.88;;;4.68;;
75542;SDS011;64129;53.508;10.476;2023-06-22T04:52:53;6.53;;;4.80;;
75542;SDS011;64129;53.508;10.476;2023-06-22T04:55:19;4.80;;;4.25;;
75542;SDS011;64129;53.508;10.476;2023-06-22T04:57:46;6.35;;;4.57;;
75542;SDS011;64129;53.508;10.476;2023-06-22T05:00:15;6.85;;;4.88;;
75542;SDS011;64129;53.508;10.476;2023-06-22T05:02:44;5.85;;;5.25;;
75542;SDS011;64129;53.508;10.476;2023-06-22T05:07:41;5.80;;;4.18;;
75542;SDS011;64129;53.508;10.476;2023-06-22T05:10:09;6.07;;;4.10;;
75542;SDS011;64129;53.508;10.476;2023-06-22T05:12:38;5.90;;;4.03;;
75542;SDS011;64129;53.508;10.476;2023-06-22T05:15:06;6.15;;;4.22;;
75542;SDS011;64129;53.508;10.476;2023-06-22T05:17:34;7.68;;;3.60;;
75542;SDS011;64129;53.508;10.476;2023-06-22T05:20:01;6.68;;;4.90;;
75542;SDS011;64129;53.508;10.476;2023-06-22T05:22:28;8.18;;;4.50;;
75542;SDS011;64129;53.508;10.476;2023-06-22T05:24:55;5.80;;;4.55;;
75542;SDS011;64129;53.508;10.476;2023-06-22T05:27:22;5.65;;;4.18;;
75542;SDS011;64129;53.508;10.476;2023-06-22T05:29:48;7.18;;;4.28;;
75542;SDS011;64129;53.508;10.476;2023-06-22T05:32:15;7.05;;;4.45;;
75542;SDS011;64129;53.508;10.476;2023-06-22T05:34:42;6.50;;;4.03;;
75542;SDS011;64129;53.508;10.476;2023-06-22T05:37:08;6.15;;;4.65;;
75542;SDS011;64129;53.508;10.476;2023-06-22T05:39:35;5.47;;;3.83;;
75542;SDS011;64129;53.508;10.476;2023-06-22T05:42:04;7.97;;;5.05;;
75542;SDS011;64129;53.508;10.476;2023-06-22T05:44:33;5.30;;;4.15;;
75542;SDS011;64129;53.508;10.476;2023-06-22T05:47:00;4.45;;;4.03;;
75542;SDS011;64129;53.508;10.476;2023-06-22T05:49:27;6.07;;;3.63;;
75542;SDS011;64129;53.508;10.476;2023-06-22T05:51:59;5.60;;;4.10;;
75542;SDS011;64129;53.508;10.476;2023-06-22T05:54:29;4.55;;;3.83;;
75542;SDS011;64129;53.508;10.476;2023-06-22T05:56:56;5.43;;;3.85;;
75542;SDS011;64129;53.508;10.476;2023-06-22T05:59:23;5.43;;;3.58;;
75542;SDS011;64129;53.508;10.476;2023-06-22T06:01:49;4.60;;;3.80;;
75542;SDS011;64129;53.508;10.476;2023-06-22T06:04:17;5.05;;;3.15;;
75542;SDS011;64129;53.508;10.476;2023-06-22T06:06:44;5.40;;;3.33;;
75542;SDS011;64129;53.508;10.476;2023-06-22T06:09:16;6.00;;;3.20;;
75542;SDS011;64129;53.508;10.476;2023-06-22T06:11:43;3.40;;;3.08;;
75542;SDS011;64129;53.508;10.476;2023-06-22T06:14:09;4.40;;;2.97;;
75542;SDS011;64129;53.508;10.476;2023-06-22T06:16:36;3.92;;;2.47;;
75542;SDS011;64129;53.508;10.476;2023-06-22T06:19:03;5.72;;;2.97;;
75542;SDS011;64129;53.508;10.476;2023-06-22T06:21:29;3.65;;;2.70;;
75542;SDS011;64129;53.508;10.476;2023-06-22T06:23:56;3.13;;;2.83;;
75542;SDS011;64129;53.508;10.476;2023-06-22T06:26:23;3.78;;;2.67;;
75542;SDS011;64129;53.508;10.476;2023-06-22T06:28:54;4.55;;;2.90;;
75542;SDS011;64129;53.508;10.476;2023-06-22T06:31:22;3.13;;;2.70;;
75542;SDS011;64129;53.508;10.476;2023-06-22T06:33:49;3.83;;;2.58;;
75542;SDS011;64129;53.508;10.476;2023-06-22T06:36:16;3.35;;;2.70;;
75542;SDS011;64129;53.508;10.476;2023-06-22T06:38:43;5.03;;;2.58;;
75542;SDS011;64129;53.508;10.476;2023-06-22T06:41:09;4.35;;;2.95;;
75542;SDS011;64129;53.508;10.476;2023-06-22T06:43:36;5.75;;;3.05;;
75542;SDS011;64129;53.508;10.476;2023-06-22T06:46:02;5.18;;;2.90;;
75542;SDS011;64129;53.508;10.476;2023-06-22T06:48:29;3.30;;;2.75;;
75542;SDS011;64129;53.508;10.476;2023-06-22T06:50:56;7.13;;;3.50;;
75542;SDS011;64129;53.508;10.476;2023-06-22T06:53:22;5.22;;;3.08;;
75542;SDS011;64129;53.508;10.476;2023-06-22T06:55:49;6.47;;;4.30;;
75542;SDS011;64129;53.508;10.476;2023-06-22T06:58:15;4.10;;;2.95;;
75542;SDS011;64129;53.508;10.476;2023-06-22T07:00:42;4.20;;;3.35;;
75542;SDS011;64129;53.508;10.476;2023-06-22T07:03:10;5.13;;;3.25;;
75542;SDS011;64129;53.508;10.476;2023-06-22T07:05:36;5.93;;;3.55;;
75542;SDS011;64129;53.508;10.476;2023-06-22T07:08:03;5.05;;;3.22;;
75542;SDS011;64129;53.508;10.476;2023-06-22T07:10:29;4.90;;;3.13;;
75542;SDS011;64129;53.508;10.476;2023-06-22T07:12:56;4.28;;;3.15;;
75542;SDS011;64129;53.508;10.476;2023-06-22T07:15:23;3.72;;;3.20;;
75542;SDS011;64129;53.508;10.476;2023-06-22T07:17:50;4.15;;;3.00;;
75542;SDS011;64129;53.508;10.476;2023-06-22T07:20:16;3.53;;;2.90;;
75542;SDS011;64129;53.508;10.476;2023-06-22T07:22:43;4.82;;;3.30;;
75542;SDS011;64129;53.508;10.476;2023-06-22T07:25:13;3.63;;;3.20;;
75542;SDS011;64129;53.508;10.476;2023-06-22T07:27:45;4.53;;;3.53;;
75542;SDS011;64129;53.508;10.476;2023-06-22T07:30:12;5.03;;;3.30;;
75542;SDS011;64129;53.508;10.476;2023-06-22T07:32:40;3.58;;;3.15;;
75542;SDS011;64129;53.508;10.476;2023-06-22T07:35:07;5.32;;;3.20;;
75542;SDS011;64129;53.508;10.476;2023-06-22T07:37:34;3.85;;;2.85;;
75542;SDS011;64129;53.508;10.476;2023-06-22T07:40:01;11.05;;;4.00;;
75542;SDS011;64129;53.508;10.476;2023-06-22T07:42:30;4.10;;;3.33;;
75542;SDS011;64129;53.508;10.476;2023-06-22T07:44:59;4.28;;;3.10;;
75542;SDS011;64129;53.508;10.476;2023-06-22T07:47:25;4.25;;;2.95;;
75542;SDS011;64129;53.508;10.476;2023-06-22T07:49:54;3.72;;;3.10;;
75542;SDS011;64129;53.508;10.476;2023-06-22T07:52:24;5.18;;;3.42;;
75542;SDS011;64129;53.508;10.476;2023-06-22T07:54:51;4.68;;;2.97;;
75542;SDS011;64129;53.508;10.476;2023-06-22T07:57:18;5.25;;;4.22;;
75542;SDS011;64129;53.508;10.476;2023-06-22T07:59:45;4.28;;;2.95;;
75542;SDS011;64129;53.508;10.476;2023-06-22T08:02:15;4.15;;;3.13;;
75542;SDS011;64129;53.508;10.476;2023-06-22T08:04:41;3.95;;;3.22;;
75542;SDS011;64129;53.508;10.476;2023-06-22T08:07:08;3.83;;;3.30;;
75542;SDS011;64129;53.508;10.476;2023-06-22T08:09:35;4.28;;;3.28;;
75542;SDS011;64129;53.508;10.476;2023-06-22T08:12:02;4.03;;;2.80;;
75542;SDS011;64129;53.508;10.476;2023-06-22T08:14:29;7.38;;;3.92;;
75542;SDS011;64129;53.508;10.476;2023-06-22T08:16:56;4.47;;;3.20;;
75542;SDS011;64129;53.508;10.476;2023-06-22T08:19:22;3.85;;;3.00;;
75542;SDS011;64129;53.508;10.476;2023-06-22T08:21:49;4.75;;;2.70;;
75542;SDS011;64129;53.508;10.476;2023-06-22T08:24:15;4.35;;;3.42;;
75542;SDS011;64129;53.508;10.476;2023-06-22T08:26:42;4.38;;;2.90;;
75542;SDS011;64129;53.508;10.476;2023-06-22T08:29:08;6.55;;;2.97;;
75542;SDS011;64129;53.508;10.476;2023-06-22T08:31:35;5.35;;;2.70;;
75542;SDS011;64129;53.508;10.476;2023-06-22T08:34:02;3.55;;;2.72;;
75542;SDS011;64129;53.508;10.476;2023-06-22T08:36:28;4.43;;;2.72;;
75542;SDS011;64129;53.508;10.476;2023-06-22T08:38:58;3.60;;;2.72;;
75542;SDS011;64129;53.508;10.476;2023-06-22T08:41:27;3.13;;;2.72;;
75542;SDS011;64129;53.508;10.476;2023-06-22T08:43:54;3.22;;;2.75;;
75542;SDS011;64129;53.508;10.476;2023-06-22T08:46:20;3.97;;;2.20;;
75542;SDS011;64129;53.508;10.476;2023-06-22T08:48:49;2.53;;;1.90;;
75542;SDS011;64129;53.508;10.476;2023-06-22T08:51:17;3.70;;;2.78;;
75542;SDS011;64129;53.508;10.476;2023-06-22T08:53:43;3.67;;;2.35;;
75542;SDS011;64129;53.508;10.476;2023-06-22T08:56:11;3.33;;;2.47;;
75542;SDS011;64129;53.508;10.476;2023-06-22T08:58:38;2.88;;;2.50;;
75542;SDS011;64129;53.508;10.476;2023-06-22T09:01:04;4.45;;;2.83;;
75542;SDS011;64129;53.508;10.476;2023-06-22T09:03:31;5.88;;;3.10;;
75542;SDS011;64129;53.508;10.476;2023-06-22T09:05:59;3.60;;;2.70;;
75542;SDS011;64129;53.508;10.476;2023-06-22T09:08:25;3.10;;;2.60;;
75542;SDS011;64129;53.508;10.476;2023-06-22T09:10:52;4.70;;;2.72;;
75542;SDS011;64129;53.508;10.476;2023-06-22T09:13:18;3.92;;;2.55;;
75542;SDS011;64129;53.508;10.476;2023-06-22T09:15:45;4.85;;;2.97;;
75542;SDS011;64129;53.508;10.476;2023-06-22T09:18:12;3.92;;;2.47;;
75542;SDS011;64129;53.508;10.476;2023-06-22T09:23:06;2.63;;;2.22;;
75542;SDS011;64129;53.508;10.476;2023-06-22T09:25:32;2.85;;;2.40;;
75542;SDS011;64129;53.508;10.476;2023-06-22T09:27:59;3.90;;;2.53;;
75542;SDS011;64129;53.508;10.476;2023-06-22T09:30:25;5.40;;;2.60;;
75542;SDS011;64129;53.508;10.476;2023-06-22T09:32:52;3.63;;;2.67;;
75542;SDS011;64129;53.508;10.476;2023-06-22T09:35:19;3.17;;;2.45;;
75542;SDS011;64129;53.508;10.476;2023-06-22T09:37:46;3.13;;;2.13;;
75542;SDS011;64129;53.508;10.476;2023-06-22T09:40:12;3.95;;;2.50;;
75542;SDS011;64129;53.508;10.476;2023-06-22T09:42:42;4.32;;;2.60;;
75542;SDS011;64129;53.508;10.476;2023-06-22T09:45:08;4.22;;;2.90;;
75542;SDS011;64129;53.508;10.476;2023-06-22T09:47:35;5.25;;;2.90;;
75542;SDS011;64129;53.508;10.476;2023-06-22T09:50:02;3.65;;;2.83;;
75542;SDS011;64129;53.508;10.476;2023-06-22T09:52:29;4.93;;;2.83;;
75542;SDS011;64129;53.508;10.476;2023-06-22T09:55:00;3.22;;;2.88;;
75542;SDS011;64129;53.508;10.476;2023-06-22T09:57:26;4.63;;;2.83;;
75542;SDS011;64129;53.508;10.476;2023-06-22T09:59:53;3.53;;;2.75;;
75542;SDS011;64129;53.508;10.476;2023-06-22T10:02:19;5.03;;;3.67;;
75542;SDS011;64129;53.508;10.476;2023-06-22T10:04:46;4.85;;;3.03;;
75542;SDS011;64129;53.508;10.476;2023-06-22T10:07:12;3.20;;;2.75;;
75542;SDS011;64129;53.508;10.476;2023-06-22T10:09:39;5.53;;;3.70;;
75542;SDS011;64129;53.508;10.476;2023-06-22T10:12:06;3.58;;;2.92;;
75542;SDS011;64129;53.508;10.476;2023-06-22T10:14:33;4.63;;;3.17;;
75542;SDS011;64129;53.508;10.476;2023-06-22T10:16:59;4.47;;;3.22;;
75542;SDS011;64129;53.508;10.476;2023-06-22T10:19:26;5.60;;;3.30;;
75542;SDS011;64129;53.508;10.476;2023-06-22T10:21:52;3.10;;;2.55;;
75542;SDS011;64129;53.508;10.476;2023-06-22T10:24:20;3.78;;;2.90;;
75542;SDS011;64129;53.508;10.476;2023-06-22T10:26:46;6.53;;;3.30;;
75542;SDS011;64129;53.508;10.476;2023-06-22T10:29:13;3.97;;;2.92;;
75542;SDS011;64129;53.508;10.476;2023-06-22T10:31:41;3.20;;;2.90;;
75542;SDS011;64129;53.508;10.476;2023-06-22T10:34:08;5.13;;;2.97;;
75542;SDS011;64129;53.508;10.476;2023-06-22T10:36:34;2.72;;;2.53;;
75542;SDS011;64129;53.508;10.476;2023-06-22T10:39:01;4.00;;;3.20;;
75542;SDS011;64129;53.508;10.476;2023-06-22T10:41:29;5.30;;;3.40;;
75542;SDS011;64129;53.508;10.476;2023-06-22T10:46:25;4.07;;;3.03;;
75542;SDS011;64129;53.508;10.476;2023-06-22T10:48:53;4.20;;;2.80;;
75542;SDS011;64129;53.508;10.476;2023-06-22T10:51:21;3.85;;;2.70;;
75542;SDS011;64129;53.508;10.476;2023-06-22T10:53:48;7.20;;;3.20;;
75542;SDS011;64129;53.508;10.476;2023-06-22T10:56:14;3.58;;;3.08;;
75542;SDS011;64129;53.508;10.476;2023-06-22T10:58:41;5.78;;;3.60;;
75542;SDS011;64129;53.508;10.476;2023-06-22T11:01:07;3.42;;;3.13;;
75542;SDS011;64129;53.508;10.476;2023-06-22T11:06:01;4.53;;;3.53;;
75542;SDS011;64129;53.508;10.476;2023-06-22T11:08:28;3.80;;;3.10;;
75542;SDS011;64129;53.508;10.476;2023-06-22T11:10:54;4.93;;;3.20;;
75542;SDS011;64129;53.508;10.476;2023-06-22T11:13:21;5.93;;;3.63;;
75542;SDS011;64129;53.508;10.476;2023-06-22T11:15:47;4.78;;;2.92;;
75542;SDS011;64129;53.508;10.476;2023-06-22T11:18:14;3.67;;;3.05;;
75542;SDS011;64129;53.508;10.476;2023-06-22T11:20:41;3.53;;;3.22;;
75542;SDS011;64129;53.508;10.476;2023-06-22T11:23:08;3.95;;;3.65;;
75542;SDS011;64129;53.508;10.476;2023-06-22T11:25:34;5.30;;;3.28;;
75542;SDS011;64129;53.508;10.476;2023-06-22T11:28:04;4.50;;;3.78;;
75542;SDS011;64129;53.508;10.476;2023-06-22T11:30:31;3.70;;;3.15;;
75542;SDS011;64129;53.508;10.476;2023-06-22T11:32:58;4.00;;;3.47;;
75542;SDS011;64129;53.508;10.476;2023-06-22T11:35:25;3.30;;;3.00;;
75542;SDS011;64129;53.508;10.476;2023-06-22T11:37:52;3.42;;;3.08;;
75542;SDS011;64129;53.508;10.476;2023-06-22T11:40:19;4.78;;;3.75;;
75542;SDS011;64129;53.508;10.476;2023-06-22T11:42:45;4.47;;;4.07;;
75542;SDS011;64129;53.508;10.476;2023-06-22T11:45:12;3.97;;;3.47;;
75542;SDS011;64129;53.508;10.476;2023-06-22T11:47:39;4.70;;;4.22;;
75542;SDS011;64129;53.508;10.476;2023-06-22T11:50:06;4.28;;;3.88;;
75542;SDS011;64129;53.508;10.476;2023-06-22T11:54:59;5.82;;;4.07;;
75542;SDS011;64129;53.508;10.476;2023-06-22T11:57:26;4.28;;;3.88;;
75542;SDS011;64129;53.508;10.476;2023-06-22T11:59:53;3.67;;;3.28;;
75542;SDS011;64129;53.508;10.476;2023-06-22T12:02:19;4.95;;;3.63;;
75542;SDS011;64129;53.508;10.476;2023-06-22T12:04:46;4.40;;;4.00;;
75542;SDS011;64129;53.508;10.476;2023-06-22T12:07:12;4.13;;;3.72;;
75542;SDS011;64129;53.508;10.476;2023-06-22T12:09:39;4.32;;;3.67;;
75542;SDS011;64129;53.508;10.476;2023-06-22T12:12:06;4.40;;;4.00;;
75542;SDS011;64129;53.508;10.476;2023-06-22T12:14:32;4.90;;;3.65;;
75542;SDS011;64129;53.508;10.476;2023-06-22T12:16:59;4.63;;;3.60;;
75542;SDS011;64129;53.508;10.476;2023-06-22T12:19:26;5.28;;;3.83;;
75542;SDS011;64129;53.508;10.476;2023-06-22T12:21:52;4.07;;;3.35;;
75542;SDS011;64129;53.508;10.476;2023-06-22T12:24:19;4.13;;;3.50;;
75542;SDS011;64129;53.508;10.476;2023-06-22T12:26:45;5.20;;;3.72;;
75542;SDS011;64129;53.508;10.476;2023-06-22T12:29:12;5.63;;;3.53;;
75542;SDS011;64129;53.508;10.476;2023-06-22T12:31:39;4.00;;;3.50;;
75542;SDS011;64129;53.508;10.476;2023-06-22T12:34:06;4.60;;;3.38;;
75542;SDS011;64129;53.508;10.476;2023-06-22T12:36:32;4.03;;;3.53;;
75542;SDS011;64129;53.508;10.476;2023-06-22T12:38:59;3.88;;;3.50;;
75542;SDS011;64129;53.508;10.476;2023-06-22T12:41:25;4.47;;;3.30;;
75542;SDS011;64129;53.508;10.476;2023-06-22T12:43:52;6.00;;;3.88;;
75542;SDS011;64129;53.508;10.476;2023-06-22T12:46:18;13.07;;;3.83;;
75542;SDS011;64129;53.508;10.476;2023-06-22T12:48:45;5.32;;;3.40;;
75542;SDS011;64129;53.508;10.476;2023-06-22T12:51:12;3.85;;;3.35;;
75542;SDS011;64129;53.508;10.476;2023-06-22T12:53:38;3.70;;;3.40;;
75542;SDS011;64129;53.508;10.476;2023-06-22T12:56:05;4.03;;;3.63;;
75542;SDS011;64129;53.508;10.476;2023-06-22T12:58:31;3.97;;;3.65;;
75542;SDS011;64129;53.508;10.476;2023-06-22T13:00:58;4.13;;;3.22;;
75542;SDS011;64129;53.508;10.476;2023-06-22T13:03:24;4.28;;;3.17;;
75542;SDS011;64129;53.508;10.476;2023-06-22T13:05:53;4.28;;;3.55;;
75542;SDS011;64129;53.508;10.476;2023-06-22T13:08:20;5.15;;;3.85;;
75542;SDS011;64129;53.508;10.476;2023-06-22T13:10:47;5.68;;;3.78;;
75542;SDS011;64129;53.508;10.476;2023-06-22T13:13:13;4.72;;;4.07;;
75542;SDS011;64129;53.508;10.476;2023-06-22T13:15:40;4.80;;;3.92;;
75542;SDS011;64129;53.508;10.476;2023-06-22T13:18:06;4.70;;;4.10;;
75542;SDS011;64129;53.508;10.476;2023-06-22T13:20:33;4.63;;;4.10;;
75542;SDS011;64129;53.508;10.476;2023-06-22T13:23:00;5.32;;;4.50;;
75542;SDS011;64129;53.508;10.476;2023-06-22T13:25:26;5.10;;;4.60;;
75542;SDS011;64129;53.508;10.476;2023-06-22T13:27:53;4.88;;;3.88;;
75542;SDS011;64129;53.508;10.476;2023-06-22T13:30:20;5.72;;;4.80;;
75542;SDS011;64129;53.508;10.476;2023-06-22T13:32:46;5.38;;;3.80;;
75542;SDS011;64129;53.508;10.476;2023-06-22T13:35:13;7.68;;;3.72;;
75542;SDS011;64129;53.508;10.476;2023-06-22T13:37:39;4.00;;;3.60;;
75542;SDS011;64129;53.508;10.476;2023-06-22T13:40:07;4.50;;;4.10;;
75542;SDS011;64129;53.508;10.476;2023-06-22T13:42:34;5.07;;;3.67;;
75542;SDS011;64129;53.508;10.476;2023-06-22T13:45:00;6.80;;;4.10;;
75542;SDS011;64129;53.508;10.476;2023-06-22T13:47:27;5.40;;;4.03;;
75542;SDS011;64129;53.508;10.476;2023-06-22T13:49:55;5.18;;;4.03;;
75542;SDS011;64129;53.508;10.476;2023-06-22T13:52:23;5.78;;;3.88;;
75542;SDS011;64129;53.508;10.476;2023-06-22T13:54:50;3.90;;;3.53;;
75542;SDS011;64129;53.508;10.476;2023-06-22T13:57:17;4.38;;;3.63;;
75542;SDS011;64129;53.508;10.476;2023-06-22T13:59:43;4.45;;;4.05;;
75542;SDS011;64129;53.508;10.476;2023-06-22T14:02:10;3.95;;;3.50;;
75542;SDS011;64129;53.508;10.476;2023-06-22T14:04:36;4.50;;;4.10;;
75542;SDS011;64129;53.508;10.476;2023-06-22T14:07:03;3.95;;;3.65;;
75542;SDS011;64129;53.508;10.476;2023-06-22T14:09:30;4.88;;;3.88;;
75542;SDS011;64129;53.508;10.476;2023-06-22T14:11:56;4.20;;;3.80;;
75542;SDS011;64129;53.508;10.476;2023-06-22T14:14:23;4.97;;;3.55;;
75542;SDS011;64129;53.508;10.476;2023-06-22T14:16:49;4.43;;;3.60;;
75542;SDS011;64129;53.508;10.476;2023-06-22T14:19:17;4.32;;;3.60;;
75542;SDS011;64129;53.508;10.476;2023-06-22T14:21:44;4.07;;;3.67;;
75542;SDS011;64129;53.508;10.476;2023-06-22T14:24:11;4.60;;;4.22;;
75542;SDS011;64129;53.508;10.476;2023-06-22T14:26:37;4.82;;;4.18;;
75542;SDS011;64129;53.508;10.476;2023-06-22T14:29:04;4.28;;;3.60;;
75542;SDS011;64129;53.508;10.476;2023-06-22T14:31:31;3.78;;;3.47;;
75542;SDS011;64129;53.508;10.476;2023-06-22T14:33:57;3.97;;;3.67;;
75542;SDS011;64129;53.508;10.476;2023-06-22T14:36:24;4.82;;;3.95;;
75542;SDS011;64129;53.508;10.476;2023-06-22T14:38:51;5.22;;;3.90;;
75542;SDS011;64129;53.508;10.476;2023-06-22T14:41:17;4.88;;;3.80;;
75542;SDS011;64129;53.508;10.476;2023-06-22T14:43:47;6.43;;;4.05;;
75542;SDS011;64129;53.508;10.476;2023-06-22T14:46:15;4.88;;;4.43;;
75542;SDS011;64129;53.508;10.476;2023-06-22T14:48:42;4.68;;;4.05;;
75542;SDS011;64129;53.508;10.476;2023-06-22T14:51:09;4.60;;;3.67;;
75542;SDS011;64129;53.508;10.476;2023-06-22T14:53:38;4.43;;;3.80;;
75542;SDS011;64129;53.508;10.476;2023-06-22T14:56:04;4.60;;;4.20;;
75542;SDS011;64129;53.508;10.476;2023-06-22T14:58:31;4.15;;;3.75;;
75542;SDS011;64129;53.508;10.476;2023-06-22T15:01:04;4.25;;;3.83;;
75542;SDS011;64129;53.508;10.476;2023-06-22T15:03:31;4.95;;;4.05;;